The Wychwood Brewery Cotswold Classic
Skip Navigation Links
Results
Team Results
Race Stats
Smartphone Results
18 September 2016
Click your name for detailed results
Page 1 of 7 (315 items)
[1]234567
Pos
Bib No
Fav
Share
Print
Name
Time
Chip Time
Category
Cat Pos
County Cat.
County Cat. Pos.
Gender
Gen Pos
Club
Pace
1176Steven NAYLOR54:32.254:32.2Top 31Msen1Male1BEDFORD & COUNTY11.0 m/hr
225James BOLTON54:51.254:51.2Top 32VM401Male2WOODSTOCK HARRIERS AC10.9 m/hr
320David BELL54:56.054:56.0Top 33Msen2Male3CIRENCESTER AC10.9 m/hr
4191Sam O'NEILL57:54.857:54.8Msen1Msen3Male4HEADINGTON ROAD RUNNERS10.4 m/hr
52Aitor ALVAREZ FERNANDEZ58:53.358:53.3Msen2Msen4Male5OXFORD ATHLETICS10.2 m/hr
68John ATYEO59:47.259:47.2V401VM402Male6OXFORD CITY AC10.0 m/hr
7272Adrian WILLIAMS59:48.759:46.9V402  Male7CIRENCESTER AC10.0 m/hr
8233Freddie SHIRES1:00:17.51:00:17.5Msen3Msen5Male8 10.0 m/hr
9201Michael PEARCE1:01:57.31:01:57.3Msen4Msen6Male9HEADINGTON ROAD RUNNERS 9.7 m/hr
1046David CANTWELL1:02:08.01:02:06.8V403VM403Male10WOODSTOCK HARRIERS AC 9.7 m/hr
1110Jamie BAGNALL1:02:29.41:02:26.8Msen5Msen7Male11ALCHESTER RUNNING CLUB 9.6 m/hr
1255Tristan CLARKE1:02:34.41:02:32.2Msen6Msen8Male12HEADINGTON ROAD RUNNERS 9.6 m/hr
13294Ian THOMAS1:02:49.21:02:45.9V501  Male13CHERWELL RUNNERS 9.6 m/hr
14161Kenny LOWIES1:03:10.61:03:09.2V502VM501Male14  9.5 m/hr
15116Jake HARRISON1:03:34.31:03:29.1Msen7Msen9Male15WOODSTOCK HARRIERS AC 9.4 m/hr
1688Kevin GAME1:03:48.91:03:48.9V404VM404Male16WOODSTOCK HARRIERS AC 9.4 m/hr
17251Jeffrey TRYBUS1:04:15.41:04:13.6Msen8  Male17CHERWELL RUNNERS & JOGGERS 9.3 m/hr
18110Antony HANNER HOPWOOD1:04:48.31:04:45.8V405VM405Male18HEADINGTON ROAD RUNNERS 9.3 m/hr
19264Ed WHITE1:05:04.41:05:02.3Msen9Msen10Male19OXFORD UNIVERSITY PRESS 9.2 m/hr
20137Paul ILOTT1:05:11.21:05:08.8V406VM406Male20HEADINGTON ROAD RUNNERS 9.2 m/hr
21147Stephen KIBBLEWHITE1:05:24.41:05:22.2V407VM407Male21WESTON ATHLECTIC CLUB 9.2 m/hr
22319Fraser HOWARD1:05:51.01:05:48.6V408VM408Male22WITNEY ROADRUNNERS 9.1 m/hr
23344Mark TYRRELL1:06:02.21:05:59.7Msen10Msen11Male23OXFORD CITY AC 9.1 m/hr
24245Richard TAYLOR1:06:05.01:06:03.5Msen11Msen12Male24KIDLINGTON RUNNING CLUB 9.1 m/hr
25307Benedict POLLARD1:06:37.91:06:36.5V409VM409Male25EYNSHAM ROADRUNNERS 9.0 m/hr
26601Inigo SURGUY1:06:39.41:06:34.0V4010VM4010Male26HEADINGTON ROAD RUNNERS 9.0 m/hr
27259David WARLOW1:06:40.81:06:38.3V4011VM4011Male27HOOK NORTON HARRIERS 9.0 m/hr
28274Daniel WILSON1:06:56.21:06:54.1Msen12Msen13Male28ABINGDON AC 9.0 m/hr
29336Bryan VAUGHAN1:07:00.51:06:56.5V601VM601Male29WOODSTOCK HARRIERS AC 9.0 m/hr
30334Jon KEW1:07:03.81:06:59.6V4012  Male30MAIDENHEAD AC 8.9 m/hr
3118Chris BEDFORD1:07:09.41:07:07.6V503VM502Male31ABINGDON AC 8.9 m/hr
32158Mark LEWY1:07:14.51:07:12.1V504VM503Male32ABINGDON AC 8.9 m/hr
3333Graham BRIDGES1:07:31.81:07:28.2V505VM504Male33EYNSHAM ROAD RUNNERS 8.9 m/hr
34330Katy CHERRY1:07:34.51:07:34.5Top 31  Female1THAME RUNNERS 8.9 m/hr
35241Andrew STICKLEY1:07:54.71:07:51.5V4013VM4012Male34ALCHESTER RUNNING CLUB 8.8 m/hr
36239Frankie SNARE1:07:59.51:07:56.3Top 32Fsen1Female2WITNEY ROAD RUNNERS 8.8 m/hr
37196Steve OWEN1:08:12.41:08:06.5V4014  Male35WYMESWOLD 8.8 m/hr
38206Neil PINNELL1:08:36.61:08:34.0Msen13  Male36  8.7 m/hr
39313Liz MCALLISTER1:08:38.11:08:32.4Top 33  Female3EYNSHAM ROAD RUNNERS 8.7 m/hr
4031Daniel BREMNER1:08:51.61:08:49.6Msen14  Male37HEADINGTON ROAD RUNNERS 8.7 m/hr
41258Gary WARLAND1:09:08.21:09:05.0V4015VM4013Male38ALCHESTER RUNNING CLUB 8.7 m/hr
4297Claire Louise GORMAN1:09:13.71:09:08.5V351  Female4  8.7 m/hr
4345Lucy CAMBRIDGE1:09:18.51:09:12.5V352  Female5WOLVERHAMPTON & BILSTON AC 8.7 m/hr
44347James GREENAWAY1:09:21.31:09:09.3Msen15  Male39  8.7 m/hr
45322Katy YOUNG1:09:25.71:09:24.0Fsen1Fsen2Female6  8.6 m/hr
46156Simon LEECH1:09:33.01:09:23.0V506VM505Male40WHITE HORSE HARRIERS 8.6 m/hr
47134Mike Hobbs1:09:35.91:09:34.0V4016 14Male41  8.6 m/hr
48167Paul MCENTEGART1:09:38.01:09:33.0V4017  Male42  8.6 m/hr
49228Jamie SCAYSBROOK1:09:43.21:09:36.8Msen16  Male43  8.6 m/hr
50170Jack MILLER1:10:11.31:10:04.3Msen17Msen14Male44ABINGDON AC 8.5 m/hr
Page 1 of 7 (315 items)
[1]234567
fb

HyperLink Copyright (c) G Vincent, 2017